createdAt,value
2022-09-06T00:00:48.381Z,25.60
2022-09-06T00:03:50.919Z,25.40
2022-09-06T00:06:53.051Z,25.80
2022-09-06T00:09:55.143Z,25.40
2022-09-06T00:13:02.109Z,25.30
2022-09-06T00:16:30.493Z,25.30
2022-09-06T00:19:32.804Z,25.60
2022-09-06T00:22:36.400Z,25.60
2022-09-06T00:25:38.552Z,25.90
2022-09-06T00:28:40.592Z,26.00
2022-09-06T00:31:42.705Z,25.90
2022-09-06T00:34:44.603Z,26.10
2022-09-06T00:37:47.000Z,26.20
2022-09-06T00:40:48.847Z,25.90
2022-09-06T00:43:51.855Z,25.90
2022-09-06T00:46:55.351Z,25.70
2022-09-06T00:50:00.026Z,26.00
2022-09-06T00:53:02.023Z,25.90
2022-09-06T00:56:04.533Z,25.70
2022-09-06T00:59:07.090Z,26.00
2022-09-06T01:02:09.708Z,26.10
2022-09-06T01:05:13.741Z,26.10
2022-09-06T01:08:36.322Z,26.00
2022-09-06T01:12:04.397Z,25.80
2022-09-06T01:15:20.802Z,25.60
2022-09-06T01:18:51.318Z,25.50
2022-09-06T01:22:02.151Z,25.50
2022-09-06T01:25:32.116Z,25.70
2022-09-06T01:28:39.429Z,25.70
2022-09-06T01:31:54.704Z,25.80
2022-09-06T01:35:19.219Z,26.20
2022-09-06T01:38:21.550Z,26.50
2022-09-06T01:41:24.062Z,26.70
2022-09-06T01:44:27.898Z,27.20
2022-09-06T01:47:37.254Z,27.50
2022-09-06T01:51:00.356Z,27.30
2022-09-06T01:54:18.256Z,27.70
2022-09-06T01:57:38.907Z,27.20
2022-09-06T02:00:52.882Z,26.80
2022-09-06T02:04:06.355Z,26.90
2022-09-06T02:07:17.928Z,27.00
2022-09-06T02:10:43.633Z,27.00
2022-09-06T02:13:52.424Z,27.20
2022-09-06T02:16:56.474Z,27.00
2022-09-06T02:20:03.453Z,26.60
2022-09-06T02:23:08.456Z,26.50
2022-09-06T02:26:17.848Z,26.30
2022-09-06T02:29:20.097Z,26.30
2022-09-06T02:32:24.813Z,26.10
2022-09-06T02:35:27.037Z,26.40
2022-09-06T02:38:29.776Z,26.30
2022-09-06T02:41:33.269Z,26.10
2022-09-06T02:44:35.360Z,26.20
2022-09-06T02:47:37.478Z,26.20
2022-09-06T02:50:39.570Z,26.20
2022-09-06T02:53:41.544Z,26.20
2022-09-06T02:56:43.688Z,26.10
2022-09-06T02:59:46.292Z,25.90
2022-09-06T03:02:48.643Z,26.10
2022-09-06T03:05:52.924Z,26.70
2022-09-06T03:08:54.999Z,26.60
2022-09-06T03:11:57.010Z,26.80
2022-09-06T03:14:59.097Z,26.60
2022-09-06T03:18:01.023Z,26.20
2022-09-06T03:21:03.536Z,26.30
2022-09-06T03:24:05.697Z,26.20
2022-09-06T03:27:07.903Z,26.00
2022-09-06T03:30:10.432Z,26.00
2022-09-06T03:33:13.074Z,25.80
2022-09-06T03:36:15.788Z,25.80
2022-09-06T03:39:17.862Z,25.70
2022-09-06T03:42:19.742Z,25.40
2022-09-06T03:45:22.082Z,25.50
2022-09-06T03:48:26.865Z,25.60
2022-09-06T03:51:29.379Z,25.70
2022-09-06T03:54:31.233Z,25.60
2022-09-06T03:57:33.519Z,25.50
2022-09-06T04:00:35.491Z,25.60
2022-09-06T04:03:38.647Z,25.80
2022-09-06T04:06:40.623Z,25.90
2022-09-06T04:09:42.718Z,25.90
2022-09-06T04:12:46.099Z,25.90
2022-09-06T04:15:48.339Z,25.70
2022-09-06T04:18:50.537Z,25.70
2022-09-06T04:21:52.646Z,26.00
2022-09-06T04:24:54.691Z,26.40
2022-09-06T04:27:56.891Z,26.40
2022-09-06T04:31:04.332Z,26.50
2022-09-06T04:34:06.960Z,26.20
2022-09-06T04:37:08.922Z,26.40
2022-09-06T04:40:11.550Z,26.60
2022-09-06T04:43:13.563Z,26.50
2022-09-06T04:46:28.496Z,26.40
2022-09-06T04:49:30.398Z,26.30
2022-09-06T04:52:32.492Z,26.30
2022-09-06T04:55:35.958Z,26.30
2022-09-06T04:58:49.858Z,26.90
2022-09-06T05:01:51.749Z,26.80
2022-09-06T05:04:54.819Z,26.60
2022-09-06T05:07:57.205Z,26.80
2022-09-06T05:10:59.624Z,26.40
2022-09-06T05:14:01.553Z,26.00
2022-09-06T05:17:03.898Z,25.70
2022-09-06T05:20:06.150Z,25.80
2022-09-06T05:23:08.976Z,25.80
2022-09-06T05:26:10.957Z,25.50
2022-09-06T05:29:13.114Z,25.30
2022-09-06T05:32:15.177Z,25.30
2022-09-06T05:35:17.387Z,25.50
2022-09-06T05:38:19.248Z,25.40
2022-09-06T05:41:22.473Z,25.40
2022-09-06T05:44:24.603Z,25.50
2022-09-06T05:47:26.680Z,25.50
2022-09-06T05:50:28.550Z,25.20
2022-09-06T05:53:38.300Z,25.70
2022-09-06T05:56:40.207Z,25.90
2022-09-06T05:59:42.292Z,26.00
2022-09-06T06:02:47.951Z,25.80
2022-09-06T06:05:50.210Z,25.60
2022-09-06T06:08:52.186Z,25.30
2022-09-06T06:11:54.267Z,25.20
2022-09-06T06:14:56.144Z,25.30
2022-09-06T06:17:58.266Z,25.50
2022-09-06T06:21:17.257Z,25.20
2022-09-06T06:24:19.860Z,25.30
2022-09-06T06:27:21.811Z,25.20
2022-09-06T06:30:23.857Z,24.90
2022-09-06T06:33:25.786Z,24.90
2022-09-06T06:36:30.783Z,24.40
2022-09-06T06:39:33.247Z,24.40
2022-09-06T06:42:35.340Z,24.20
2022-09-06T06:45:37.352Z,24.40
2022-09-06T06:48:43.575Z,24.30
2022-09-06T06:51:45.457Z,24.10
2022-09-06T06:54:49.099Z,24.20
2022-09-06T06:57:51.525Z,24.30
2022-09-06T07:00:54.439Z,23.30
2022-09-06T07:03:57.233Z,22.50
2022-09-06T07:10:37.541Z,21.10
2022-09-06T07:13:39.978Z,20.70
2022-09-06T07:16:42.795Z,20.60
2022-09-06T07:26:30.857Z,19.90
2022-09-06T07:29:32.767Z,19.70
2022-09-06T07:32:35.228Z,19.50
2022-09-06T07:35:37.128Z,19.30
2022-09-06T07:38:39.229Z,19.60
2022-09-06T07:41:41.174Z,19.80
2022-09-06T07:44:43.369Z,20.20
2022-09-06T07:48:00.879Z,20.70
2022-09-06T07:51:13.761Z,21.30
2022-09-06T07:54:31.501Z,20.90
2022-09-06T07:57:33.811Z,20.90
2022-09-06T08:00:36.776Z,20.60
2022-09-06T08:03:39.599Z,20.20
2022-09-06T08:10:10.320Z,20.30
2022-09-06T08:13:12.340Z,20.20
2022-09-06T08:16:15.640Z,20.90
2022-09-06T08:19:18.370Z,21.80
2022-09-06T08:22:20.683Z,21.30
2022-09-06T08:25:22.880Z,21.60
2022-09-06T08:28:28.561Z,21.80
2022-09-06T08:31:32.072Z,22.00
2022-09-06T08:34:34.827Z,22.00
2022-09-06T08:37:37.947Z,22.80
2022-09-06T08:40:41.216Z,22.50
2022-09-06T08:47:21.017Z,22.90
2022-09-06T08:50:25.104Z,23.70
2022-09-06T08:53:27.311Z,23.20
2022-09-06T08:56:38.014Z,23.00
2022-09-06T08:59:42.942Z,23.40
2022-09-06T09:02:59.753Z,23.90
2022-09-06T09:06:05.341Z,22.80
2022-09-06T09:09:09.006Z,22.30
2022-09-06T09:12:15.210Z,22.10
2022-09-06T09:15:20.005Z,21.70
2022-09-06T09:18:28.014Z,21.80
2022-09-06T09:21:34.184Z,21.50
2022-09-06T09:24:37.155Z,20.70
2022-09-06T09:27:39.727Z,21.00
2022-09-06T09:30:50.573Z,20.60
2022-09-06T09:33:52.531Z,20.50
2022-09-06T09:41:03.659Z,19.90
2022-09-06T09:44:16.239Z,20.10
2022-09-06T09:47:28.535Z,20.30
2022-09-06T09:50:33.702Z,20.40
2022-09-06T09:53:56.756Z,20.70
2022-09-06T09:56:59.322Z,20.70
2022-09-06T10:00:01.614Z,20.00
2022-09-06T10:03:16.463Z,20.00
2022-09-06T10:10:10.599Z,20.50
2022-09-06T10:13:29.310Z,20.30
2022-09-06T10:16:45.602Z,19.90
2022-09-06T10:19:48.737Z,19.80
2022-09-06T10:23:07.806Z,19.70
2022-09-06T10:26:18.952Z,19.90
2022-09-06T10:29:41.372Z,20.00
2022-09-06T10:32:56.355Z,20.20
2022-09-06T10:36:00.279Z,20.20
2022-09-06T10:39:26.804Z,19.60
2022-09-06T10:42:53.167Z,19.70
2022-09-06T10:45:59.691Z,19.80
2022-09-06T10:49:01.801Z,19.30
2022-09-06T10:52:08.153Z,19.90
2022-09-06T10:55:14.231Z,20.00
2022-09-06T10:58:25.055Z,20.70
2022-09-06T11:01:47.558Z,20.00
2022-09-06T11:12:12.576Z,20.40
2022-09-06T11:15:17.658Z,20.20
2022-09-06T11:18:26.217Z,20.50
2022-09-06T11:21:55.378Z,20.80
2022-09-06T11:25:22.212Z,20.10
2022-09-06T11:28:38.221Z,19.70
2022-09-06T11:35:25.592Z,19.60
2022-09-06T11:38:27.821Z,19.90
2022-09-06T11:41:33.930Z,20.50
2022-09-06T11:45:21.182Z,20.70
2022-09-06T11:48:34.323Z,20.60
2022-09-06T11:51:40.685Z,21.00
2022-09-06T11:54:47.103Z,20.70
2022-09-06T11:57:55.830Z,20.60
2022-09-06T12:01:13.275Z,20.30
2022-09-06T12:04:15.255Z,20.10
2022-09-06T12:07:17.406Z,19.50
2022-09-06T12:10:31.213Z,19.60
2022-09-06T12:13:49.274Z,19.40
2022-09-06T12:17:04.834Z,19.70
2022-09-06T12:20:07.419Z,19.90
2022-09-06T12:23:29.297Z,19.90
2022-09-06T12:26:55.692Z,19.80
2022-09-06T12:30:05.194Z,20.00
2022-09-06T12:33:33.465Z,19.20
2022-09-06T12:36:36.552Z,19.20
2022-09-06T12:39:38.805Z,19.60
2022-09-06T12:42:43.924Z,19.50
2022-09-06T12:45:48.953Z,19.10
2022-09-06T12:49:02.209Z,19.00
2022-09-06T12:52:22.219Z,19.20
2022-09-06T12:55:35.258Z,19.20
2022-09-06T12:58:38.713Z,18.90
2022-09-06T13:01:47.317Z,18.90
2022-09-06T13:04:58.766Z,19.00
2022-09-06T13:08:02.759Z,18.50
2022-09-06T13:11:09.521Z,19.00
2022-09-06T13:14:14.605Z,18.70
2022-09-06T13:17:28.085Z,19.00
2022-09-06T13:20:31.734Z,18.90
2022-09-06T13:23:50.347Z,19.00
2022-09-06T13:26:53.230Z,19.00
2022-09-06T13:29:59.942Z,18.50
2022-09-06T13:33:03.992Z,18.30
2022-09-06T13:36:21.142Z,18.00
2022-09-06T13:39:35.430Z,18.00
2022-09-06T13:42:37.849Z,17.80
2022-09-06T13:45:43.358Z,18.10
2022-09-06T13:48:46.348Z,17.90
2022-09-06T13:51:48.242Z,18.00
2022-09-06T13:54:50.504Z,17.90
2022-09-06T13:57:52.408Z,18.00
2022-09-06T14:00:54.771Z,18.00
2022-09-06T14:03:56.685Z,18.10
2022-09-06T14:06:59.147Z,18.00
2022-09-06T14:10:01.264Z,18.10
2022-09-06T14:13:03.455Z,18.30
2022-09-06T14:16:06.032Z,18.50
2022-09-06T14:19:08.185Z,18.40
2022-09-06T14:22:10.148Z,18.20
2022-09-06T14:25:13.058Z,18.30
2022-09-06T14:28:15.381Z,18.40
2022-09-06T14:31:20.512Z,18.30
2022-09-06T14:34:22.818Z,18.90
2022-09-06T14:37:25.026Z,18.40
2022-09-06T14:40:27.254Z,18.10
2022-09-06T14:43:29.355Z,18.10
2022-09-06T14:46:31.339Z,18.30
2022-09-06T14:49:33.620Z,18.60
2022-09-06T14:52:35.875Z,18.40
2022-09-06T14:55:39.676Z,18.40
2022-09-06T14:58:42.423Z,18.20
2022-09-06T15:01:44.647Z,18.40
2022-09-06T15:04:46.653Z,18.50
2022-09-06T15:07:48.920Z,18.30
2022-09-06T15:10:55.728Z,18.30
2022-09-06T15:13:58.550Z,18.40
2022-09-06T15:17:00.695Z,18.50
2022-09-06T15:20:03.257Z,18.70
2022-09-06T15:26:28.312Z,18.80
2022-09-06T15:29:30.309Z,19.00
2022-09-06T15:32:32.461Z,19.10
2022-09-06T15:35:34.703Z,19.30
2022-09-06T15:38:41.866Z,19.60
2022-09-06T15:41:44.098Z,19.90
2022-09-06T15:44:46.206Z,19.50
2022-09-06T15:47:48.150Z,19.90
2022-09-06T15:50:51.979Z,20.40
2022-09-06T15:53:54.062Z,20.10
2022-09-06T15:56:58.106Z,20.30
2022-09-06T16:00:00.110Z,20.40
2022-09-06T16:03:02.315Z,20.40
2022-09-06T16:09:29.729Z,20.80
2022-09-06T16:12:31.626Z,20.30
2022-09-06T16:15:33.722Z,20.30
2022-09-06T16:18:38.498Z,20.40
2022-09-06T16:21:42.664Z,20.50
2022-09-06T16:24:44.862Z,20.60
2022-09-06T16:27:46.969Z,21.10
2022-09-06T16:30:50.074Z,20.70
2022-09-06T16:33:53.723Z,20.70
2022-09-06T16:36:56.977Z,20.80
2022-09-06T16:39:59.423Z,21.00
2022-09-06T16:43:03.280Z,20.80
2022-09-06T16:46:06.071Z,20.70
2022-09-06T16:49:08.249Z,21.10
2022-09-06T16:52:10.546Z,20.90
2022-09-06T16:55:12.457Z,20.80
2022-09-06T16:58:14.900Z,20.90
2022-09-06T17:01:17.001Z,21.00
2022-09-06T17:04:19.238Z,21.00
2022-09-06T17:07:21.266Z,20.90
2022-09-06T17:10:26.666Z,21.10
2022-09-06T17:13:29.957Z,21.00
2022-09-06T17:16:50.855Z,21.40
2022-09-06T17:19:52.796Z,21.10
2022-09-06T17:22:54.901Z,21.00
2022-09-06T17:25:56.880Z,21.10
2022-09-06T17:28:59.584Z,21.20
2022-09-06T17:32:03.687Z,21.10
2022-09-06T17:35:07.357Z,21.50
2022-09-06T17:38:09.696Z,21.20
2022-09-06T17:41:27.345Z,21.40
2022-09-06T17:44:29.439Z,21.90
2022-09-06T17:47:31.908Z,21.30
2022-09-06T17:50:34.640Z,21.70
2022-09-06T17:53:37.799Z,21.70
2022-09-06T17:56:40.353Z,21.50
2022-09-06T17:59:42.570Z,21.60
2022-09-06T18:02:44.495Z,21.60
2022-09-06T18:05:46.583Z,21.90
2022-09-06T18:08:50.381Z,21.90
2022-09-06T18:11:52.801Z,22.20
2022-09-06T18:14:54.825Z,22.00
2022-09-06T18:17:57.678Z,22.40
2022-09-06T18:21:01.548Z,21.90
2022-09-06T18:24:04.735Z,21.90
2022-09-06T18:27:06.663Z,22.00
2022-09-06T18:30:14.178Z,22.20
2022-09-06T18:33:16.773Z,22.40
2022-09-06T18:36:19.767Z,23.00
2022-09-06T18:39:21.898Z,22.50
2022-09-06T18:42:24.255Z,22.50
2022-09-06T18:45:26.214Z,22.70
2022-09-06T18:48:29.143Z,22.70
2022-09-06T18:51:31.186Z,23.20
2022-09-06T18:54:33.458Z,22.60
2022-09-06T18:57:35.367Z,22.80
2022-09-06T19:00:37.903Z,22.90
2022-09-06T19:03:41.095Z,23.20
2022-09-06T19:06:44.596Z,23.60
2022-09-06T19:09:46.565Z,23.30
2022-09-06T19:12:52.992Z,23.40
2022-09-06T19:15:55.369Z,23.50
2022-09-06T19:19:02.677Z,23.50
2022-09-06T19:22:04.596Z,23.40
2022-09-06T19:25:07.175Z,23.50
2022-09-06T19:28:09.112Z,23.40
2022-09-06T19:31:13.437Z,23.40
2022-09-06T19:34:16.710Z,23.40
2022-09-06T19:37:20.526Z,23.60
2022-09-06T19:40:22.488Z,23.50
2022-09-06T19:43:25.984Z,23.50
2022-09-06T19:46:28.179Z,23.30
2022-09-06T19:49:30.925Z,23.30
2022-09-06T19:52:32.843Z,23.40
2022-09-06T19:55:35.862Z,23.30
2022-09-06T19:58:39.097Z,23.10
2022-09-06T20:01:42.903Z,23.30
2022-09-06T20:04:44.895Z,23.10
2022-09-06T20:07:47.152Z,23.10
2022-09-06T20:10:56.979Z,23.00
2022-09-06T20:14:00.338Z,23.10
2022-09-06T20:17:29.291Z,23.20
2022-09-06T20:20:24.885Z,23.20
2022-09-06T20:23:28.688Z,23.10
2022-09-06T20:26:30.842Z,23.00
2022-09-06T20:29:32.796Z,23.20
2022-09-06T20:32:34.903Z,23.30
2022-09-06T20:35:37.119Z,23.20
2022-09-06T20:38:43.865Z,23.30
2022-09-06T20:41:45.861Z,23.20
2022-09-06T20:44:48.034Z,23.30
2022-09-06T20:47:49.984Z,23.30
2022-09-06T20:51:05.328Z,23.30
2022-09-06T20:54:08.089Z,23.20
2022-09-06T20:57:10.252Z,23.20
2022-09-06T21:00:14.481Z,23.20
2022-09-06T21:03:16.750Z,23.10
2022-09-06T21:06:20.339Z,23.10
2022-09-06T21:09:22.584Z,23.20
2022-09-06T21:12:24.625Z,23.40
2022-09-06T21:15:26.894Z,23.30
2022-09-06T21:18:29.642Z,23.20
2022-09-06T21:21:33.266Z,23.30
2022-09-06T21:24:37.958Z,23.30
2022-09-06T21:27:40.080Z,23.50
2022-09-06T21:30:42.024Z,23.50
2022-09-06T21:33:47.986Z,23.50
2022-09-06T21:36:50.206Z,23.50
2022-09-06T21:39:52.335Z,23.60
2022-09-06T21:42:55.361Z,23.70
2022-09-06T21:46:04.714Z,23.90
2022-09-06T21:49:09.519Z,23.80
2022-09-06T21:52:13.088Z,23.90
2022-09-06T21:55:15.755Z,23.80
2022-09-06T21:58:18.000Z,23.70
2022-09-06T22:01:20.056Z,24.30
2022-09-06T22:04:23.190Z,23.90
2022-09-06T22:07:25.180Z,23.90
2022-09-06T22:10:27.857Z,24.10
2022-09-06T22:13:29.762Z,24.00
2022-09-06T22:16:34.102Z,24.00
2022-09-06T22:19:36.123Z,23.90
2022-09-06T22:22:38.557Z,24.00
2022-09-06T22:25:41.979Z,24.00
2022-09-06T22:28:44.084Z,24.00
2022-09-06T22:31:46.237Z,24.20
2022-09-06T22:34:48.431Z,24.10
2022-09-06T22:37:50.338Z,24.40
2022-09-06T22:40:53.592Z,24.30
2022-09-06T22:43:55.596Z,24.40
2022-09-06T22:46:57.866Z,24.30
2022-09-06T22:49:59.836Z,24.40
2022-09-06T22:53:02.101Z,24.40
2022-09-06T22:56:04.352Z,24.30
2022-09-06T22:59:06.706Z,24.30
2022-09-06T23:02:08.573Z,24.20
2022-09-06T23:05:10.686Z,24.60
2022-09-06T23:08:14.053Z,24.40
2022-09-06T23:11:18.606Z,24.60
2022-09-06T23:14:20.498Z,24.40
2022-09-06T23:17:22.619Z,24.50
2022-09-06T23:20:24.631Z,24.50
2022-09-06T23:23:26.716Z,24.40
2022-09-06T23:26:30.914Z,24.70
2022-09-06T23:29:34.434Z,24.50
2022-09-06T23:32:36.619Z,24.40
2022-09-06T23:35:39.317Z,24.30
2022-09-06T23:38:42.147Z,24.60
2022-09-06T23:41:44.493Z,24.30
2022-09-06T23:44:46.384Z,24.20
2022-09-06T23:47:48.452Z,24.10
2022-09-06T23:50:50.635Z,24.00
2022-09-06T23:53:52.975Z,24.00
2022-09-06T23:56:54.857Z,23.80
2022-09-06T23:59:56.917Z,23.70
